Time;durP1;ratioP1;P1;durP2;ratioP2;P2;SDS_P1;SDS_P2;PMS_P1;PMS_P2;Temp;Humidity;BMP_temperature;BMP_pressure;BME280_temperature;BME280_humidity;BME280_pressure;Samples;Min_cycle;Max_cycle;Signal;HPM_P1;HPM_P2
2021/03/22 05:11:43;;;;;;;9.20;1.20;;;13.80;57.20;;;;;;6187085;23;20031;-77
2021/03/22 05:14:53;;;;;;;9.88;1.58;;;13.80;56.90;;;;;;6186867;23;20021;-77
2021/03/22 05:17:19;;;;;;;8.88;1.70;;;13.80;56.80;;;;;;6198808;23;20017;-75
2021/03/22 05:19:45;;;;;;;9.82;1.42;;;13.70;56.90;;;;;;6198448;23;20009;-78
2021/03/22 05:22:13;;;;;;;5.93;1.25;;;13.80;57.30;;;;;;6199277;23;20079;-77
2021/03/22 05:24:39;;;;;;;8.80;1.17;;;13.80;57.20;;;;;;6198900;23;20358;-80
2021/03/22 05:27:06;;;;;;;8.00;1.65;;;13.90;57.50;;;;;;6198780;23;20021;-79
2021/03/22 05:29:32;;;;;;;5.35;0.95;;;14.00;57.80;;;;;;6198711;23;20024;-78
2021/03/22 05:31:57;;;;;;;5.65;0.73;;;14.20;57.30;;;;;;6188551;23;20021;-78
2021/03/22 05:34:23;;;;;;;8.85;1.23;;;14.40;57.20;;;;;;6199238;23;20013;-76
2021/03/22 05:36:50;;;;;;;5.53;0.95;;;14.50;57.10;;;;;;6199395;23;20017;-84
2021/03/22 05:39:16;;;;;;;5.90;1.13;;;14.70;57.00;;;;;;6162781;23;20005;-77
2021/03/22 05:42:06;;;;;;;5.25;0.90;;;14.90;56.90;;;;;;6198755;23;20456;-78
2021/03/22 05:44:56;;;;;;;6.43;1.08;;;15.10;57.00;;;;;;6163159;23;20017;-79
2021/03/22 05:48:00;;;;;;;7.72;1.23;;;15.30;57.00;;;;;;6198162;23;20009;-79
2021/03/22 05:51:05;;;;;;;4.07;0.80;;;15.40;56.40;;;;;;6162196;23;20434;-77
2021/03/22 05:57:06;;;;;;;9.55;1.23;;;15.70;56.40;;;;;;6155767;23;20028;-77
2021/03/22 06:00:14;;;;;;;10.32;1.13;;;15.80;56.70;;;;;;6198215;23;20370;-78
2021/03/22 06:22:47;;;;;;;9.52;1.00;;;16.60;57.40;;;;;;6126627;23;20030;-77
2021/03/22 06:25:38;;;;;;;8.32;1.65;;;16.70;57.10;;;;;;6102579;23;20042;-77
2021/03/22 06:28:40;;;;;;;13.68;1.88;;;16.80;57.10;;;;;;6135726;23;20044;-76
2021/03/22 06:31:13;;;;;;;10.85;1.65;;;16.90;57.10;;;;;;6130119;23;20054;-76
2021/03/22 06:33:52;;;;;;;17.15;1.50;;;16.90;56.90;;;;;;6111664;23;20018;-76
2021/03/22 06:36:23;;;;;;;15.07;1.85;;;17.10;56.90;;;;;;6106500;23;20022;-77
2021/03/22 06:39:18;;;;;;;;;;;;;;;;;;;;;
2021/03/22 06:42:02;;;;;;;12.85;2.20;;;17.20;56.70;;;;;;6188089;23;20033;-76
2021/03/22 06:44:40;;;;;;;13.52;1.75;;;17.30;56.70;;;;;;6173438;23;20009;-76
2021/03/22 06:55:19;;;;;;;18.08;1.83;;;17.40;56.40;;;;;;6102433;23;20030;-77
2021/03/22 06:57:50;;;;;;;8.40;1.45;;;17.40;56.30;;;;;;6097273;23;20014;-77
2021/03/22 07:00:22;;;;;;;11.57;1.55;;;17.40;56.30;;;;;;6105807;23;20052;-75
2021/03/22 07:02:53;;;;;;;13.02;1.55;;;17.40;56.30;;;;;;6172077;23;20013;-74
2021/03/22 07:05:25;;;;;;;15.10;2.00;;;17.50;56.40;;;;;;6197407;23;20032;-76
2021/03/22 07:07:59;;;;;;;19.23;2.53;;;17.50;56.00;;;;;;6197301;23;20364;-75
2021/03/22 07:10:30;;;;;;;15.38;1.55;;;17.50;56.40;;;;;;6195089;23;20024;-75
2021/03/22 07:13:20;;;;;;;20.30;1.50;;;17.40;56.50;;;;;;6198878;23;20151;-76
2021/03/22 07:15:46;;;;;;;9.75;1.17;;;17.40;56.40;;;;;;6197605;23;20021;-75
2021/03/22 07:18:21;;;;;;;15.27;1.67;;;17.40;56.50;;;;;;6197742;23;20115;-75
2021/03/22 07:21:08;;;;;;;7.47;1.25;;;17.30;56.30;;;;;;6197970;23;20112;-76
2021/03/22 07:23:51;;;;;;;8.30;1.08;;;17.30;56.30;;;;;;6198110;23;20037;-75
2021/03/22 07:26:21;;;;;;;11.07;1.30;;;17.30;56.30;;;;;;6198108;23;20016;-75
2021/03/22 07:29:09;;;;;;;10.32;1.25;;;17.20;56.40;;;;;;6198367;23;20067;-75
2021/03/22 07:31:51;;;;;;;17.33;2.15;;;17.20;56.40;;;;;;6197485;23;20099;-75
2021/03/22 07:34:38;;;;;;;8.95;1.33;;;17.10;56.30;;;;;;6197904;23;20079;-75
2021/03/22 07:37:15;;;;;;;7.82;1.23;;;17.10;56.40;;;;;;6187799;23;20017;-75
2021/03/22 07:39:52;;;;;;;9.77;1.02;;;17.00;56.40;;;;;;6197552;23;20020;-76
2021/03/22 07:42:36;;;;;;;6.63;1.10;;;17.00;56.50;;;;;;6197396;23;20017;-75
2021/03/22 07:45:07;;;;;;;5.47;1.05;;;17.00;56.60;;;;;;6197296;23;20430;-75
2021/03/22 07:47:55;;;;;;;11.32;1.52;;;16.90;56.80;;;;;;6197752;23;20080;-75
2021/03/22 07:50:57;;;;;;;4.13;1.00;;;16.90;56.90;;;;;;6197248;23;20080;-75
2021/03/22 07:53:36;;;;;;;5.68;0.65;;;16.80;56.80;;;;;;6197149;23;20087;-75
2021/03/22 07:56:26;;;;;;;7.38;0.90;;;16.80;57.00;;;;;;6187213;23;20060;-75
2021/03/22 07:58:58;;;;;;;5.07;0.50;;;16.70;57.10;;;;;;6196941;23;20411;-76
2021/03/22 08:01:29;;;;;;;7.78;1.00;;;16.70;57.30;;;;;;6197542;23;20017;-75
2021/03/22 08:04:13;;;;;;;12.27;1.10;;;16.70;57.50;;;;;;6197334;23;20040;-74
2021/03/22 08:07:01;;;;;;;4.07;0.75;;;16.70;57.80;;;;;;6198358;23;20023;-75
2021/03/22 08:09:36;;;;;;;11.20;1.65;;;16.70;57.90;;;;;;6197373;23;20017;-74
2021/03/22 08:12:21;;;;;;;12.70;2.30;;;16.60;57.90;;;;;;6187933;23;20021;-75
2021/03/22 08:14:47;;;;;;;9.75;1.25;;;16.60;58.70;;;;;;6197863;23;20493;-74
2021/03/22 08:17:51;;;;;;;9.05;1.52;;;16.50;58.80;;;;;;6196660;23;20016;-74
2021/03/22 08:20:25;;;;;;;13.77;2.22;;;16.50;57.90;;;;;;6197278;23;20078;-72
2021/03/22 08:23:35;;;;;;;11.70;1.80;;;16.40;57.60;;;;;;6196968;23;20017;-73
2021/03/22 08:26:06;;;;;;;10.52;1.85;;;16.30;58.60;;;;;;6097286;23;20023;-80
2021/03/22 08:28:41;;;;;;;10.80;1.52;;;16.20;59.60;;;;;;6106315;23;20019;-77
2021/03/22 08:31:28;;;;;;;11.88;1.35;;;16.20;59.70;;;;;;6151505;23;20101;-78
2021/03/22 08:33:54;;;;;;;11.25;1.30;;;16.20;60.20;;;;;;6197114;23;20013;-75
2021/03/22 08:36:51;;;;;;;10.75;1.30;;;16.20;60.30;;;;;;6195111;23;20311;-82
2021/03/22 08:39:44;;;;;;;11.82;2.22;;;16.20;60.10;;;;;;6197621;23;20020;-74
2021/03/22 08:42:27;;;;;;;11.40;1.75;;;16.20;60.50;;;;;;6197933;23;20132;-73
2021/03/22 08:45:05;;;;;;;12.32;1.60;;;16.20;60.40;;;;;;6197096;23;20088;-74
2021/03/22 08:48:17;;;;;;;14.60;1.92;;;16.20;60.40;;;;;;6186669;23;20021;-77
2021/03/22 08:50:44;;;;;;;10.88;1.67;;;16.20;59.90;;;;;;6196836;23;20439;-75
2021/03/22 08:53:10;;;;;;;7.72;1.42;;;16.20;59.90;;;;;;6196731;23;20024;-77
2021/03/22 08:55:38;;;;;;;9.65;1.30;;;16.10;59.30;;;;;;6197082;23;20017;-87
2021/03/22 08:58:26;;;;;;;10.80;1.40;;;16.10;59.20;;;;;;6136230;23;20044;-77
2021/03/22 09:01:07;;;;;;;7.15;1.15;;;16.10;59.30;;;;;;6196832;23;20017;-80
2021/03/22 09:03:39;;;;;;;8.20;1.38;;;16.10;59.10;;;;;;6171132;23;20048;-78
2021/03/22 09:06:16;;;;;;;10.20;1.30;;;16.10;58.90;;;;;;6186977;23;20092;-79
2021/03/22 09:08:54;;;;;;;7.13;0.80;;;16.00;58.70;;;;;;6186534;23;20355;-78
2021/03/22 09:11:23;;;;;;;6.47;0.75;;;16.10;58.70;;;;;;6190093;23;20017;-76
2021/03/22 09:13:59;;;;;;;6.35;1.00;;;16.00;58.60;;;;;;6196439;23;20021;-75
2021/03/22 09:16:44;;;;;;;6.55;1.13;;;16.00;58.70;;;;;;6197041;23;20016;-77
2021/03/22 09:19:14;;;;;;;6.28;0.98;;;16.00;58.80;;;;;;6197030;23;20017;-75
2021/03/22 09:21:59;;;;;;;5.97;0.90;;;15.90;59.10;;;;;;6165175;23;20028;-77
2021/03/22 09:24:47;;;;;;;7.28;1.10;;;15.90;59.20;;;;;;6196887;23;20005;-76
2021/03/22 09:27:16;;;;;;;5.43;0.75;;;15.90;59.10;;;;;;6186556;23;20028;-76
2021/03/22 09:29:57;;;;;;;4.45;0.80;;;15.90;59.10;;;;;;6192293;23;20055;-78
2021/03/22 09:32:33;;;;;;;4.43;0.88;;;15.80;59.10;;;;;;6198255;23;20036;-75
2021/03/22 09:35:21;;;;;;;7.90;2.17;;;15.90;59.40;;;;;;6198421;23;20071;-76
2021/03/22 09:38:27;;;;;;;3.55;1.42;;;15.80;59.50;;;;;;6188562;23;20016;-85
2021/03/22 09:40:56;;;;;;;2.75;0.95;;;15.80;59.50;;;;;;6184262;23;20047;-75
2021/03/22 09:43:30;;;;;;;1.83;0.47;;;15.80;57.70;;;;;;6188477;23;20009;-76
2021/03/22 09:46:04;;;;;;;;;;;15.70;54.20;;;;;;6188873;23;20040;-73
2021/03/22 09:48:38;;;;;;;1.20;0.30;;;15.40;54.50;;;;;;6198187;23;19927;-72
2021/03/22 09:51:04;;;;;;;4.80;0.60;;;15.20;53.50;;;;;;6197753;23;20021;-76
2021/03/22 09:53:41;;;;;;;2.28;0.60;;;15.10;54.30;;;;;;6162780;23;20453;-74
2021/03/22 09:56:44;;;;;;;2.83;0.30;;;15.00;54.80;;;;;;6162870;23;20013;-74
2021/03/22 10:00:04;;;;;;;3.05;0.38;;;15.00;53.20;;;;;;6097213;23;20084;-75
2021/03/22 10:02:45;;;;;;;3.30;0.50;;;14.80;52.30;;;;;;6078243;23;20079;-73
2021/03/22 10:05:49;;;;;;;1.63;0.20;;;14.60;52.00;;;;;;6197916;23;20135;-74
2021/03/22 10:08:22;;;;;;;2.90;0.25;;;14.40;51.70;;;;;;6162210;23;20027;-73
2021/03/22 10:10:52;;;;;;;4.57;0.45;;;14.20;52.20;;;;;;6193763;23;20013;-74
2021/03/22 10:13:28;;;;;;;8.48;1.00;;;14.10;51.90;;;;;;6198361;23;20322;-73
2021/03/22 10:16:19;;;;;;;7.78;1.10;;;14.00;51.80;;;;;;6198235;23;20140;-73
2021/03/22 10:19:20;;;;;;;31.85;2.15;;;14.00;53.50;;;;;;6198615;23;20013;-80
2021/03/22 10:22:14;;;;;;;3.10;0.30;;;14.20;55.60;;;;;;6198283;23;20095;-76
2021/03/22 10:25:09;;;;;;;4.03;0.77;;;14.30;53.20;;;;;;6198493;23;20414;-75
2021/03/22 10:27:40;;;;;;;3.88;0.55;;;14.30;52.20;;;;;;6198158;23;20399;-76
2021/03/22 10:30:20;;;;;;;2.83;0.60;;;14.20;52.60;;;;;;6171517;23;20021;-75
2021/03/22 10:32:57;;;;;;;6.88;0.52;;;14.30;54.40;;;;;;6199252;23;20020;-75
2021/03/22 10:35:27;;;;;;;5.70;0.40;;;14.30;55.30;;;;;;6198474;23;20013;-75
2021/03/22 10:37:56;;;;;;;3.53;0.50;;;14.50;55.10;;;;;;6193804;23;20480;-76
2021/03/22 10:40:38;;;;;;;2.70;0.50;;;14.70;55.00;;;;;;6196312;23;20025;-75
2021/03/22 10:43:05;;;;;;;3.85;0.55;;;14.90;55.30;;;;;;6195330;23;20021;-76
2021/03/22 10:45:38;;;;;;;5.70;0.60;;;15.20;55.30;;;;;;6192210;23;20032;-77
2021/03/22 10:48:34;;;;;;;4.03;0.50;;;15.40;55.10;;;;;;6197598;23;20013;-76
2021/03/22 10:51:09;;;;;;;4.22;0.68;;;15.70;55.30;;;;;;6197932;23;20020;-75
2021/03/22 10:53:51;;;;;;;4.53;0.50;;;15.90;54.90;;;;;;6197367;23;20480;-77
2021/03/22 10:56:22;;;;;;;2.15;0.40;;;16.10;54.80;;;;;;6172017;23;20020;-76
2021/03/22 10:58:49;;;;;;;2.53;0.80;;;16.30;54.90;;;;;;6197521;23;20017;-75
2021/03/22 11:01:17;;;;;;;5.90;0.68;;;16.40;54.70;;;;;;6197098;23;20012;-76
2021/03/22 11:03:48;;;;;;;2.83;0.43;;;16.50;54.80;;;;;;6197472;23;20036;-77
2021/03/22 11:06:33;;;;;;;2.75;0.50;;;16.50;54.80;;;;;;6171660;23;20009;-75
2021/03/22 11:09:04;;;;;;;3.72;0.70;;;16.70;55.20;;;;;;6198025;23;20096;-75
2021/03/22 11:11:33;;;;;;;3.08;0.35;;;16.70;54.90;;;;;;6188840;23;20092;-74
2021/03/22 11:14:03;;;;;;;3.92;0.50;;;16.70;55.00;;;;;;6161980;23;20421;-75
2021/03/22 11:16:32;;;;;;;2.30;0.40;;;16.80;55.10;;;;;;6197461;23;20067;-79
2021/03/22 11:19:06;;;;;;;4.95;0.57;;;16.90;55.30;;;;;;6198766;23;20060;-76
2021/03/22 11:21:32;;;;;;;4.72;0.47;;;17.00;55.80;;;;;;6197441;23;20017;-75
2021/03/22 11:23:58;;;;;;;3.28;0.40;;;17.10;55.80;;;;;;6197473;23;20032;-78
2021/03/22 11:26:27;;;;;;;2.20;0.57;;;17.20;56.10;;;;;;6187480;23;20418;-76
2021/03/22 11:29:15;;;;;;;5.43;0.50;;;17.30;56.20;;;;;;6198046;23;20108;-77
2021/03/22 11:31:45;;;;;;;5.78;0.55;;;17.40;56.40;;;;;;6197504;23;20040;-77
2021/03/22 11:34:24;;;;;;;4.47;0.70;;;17.50;56.20;;;;;;6197709;23;20077;-76
2021/03/22 11:37:03;;;;;;;4.10;0.32;;;17.50;56.20;;;;;;6198127;23;20058;-78
2021/03/22 11:39:31;;;;;;;4.70;0.30;;;17.60;56.20;;;;;;6197553;23;20067;-75
2021/03/22 11:41:57;;;;;;;7.22;0.38;;;17.70;56.10;;;;;;6197410;23;20025;-76
2021/03/22 11:44:30;;;;;;;3.75;0.65;;;17.70;56.10;;;;;;6198097;23;20036;-77
2021/03/22 11:47:16;;;;;;;3.40;0.47;;;17.70;55.90;;;;;;6170780;23;20033;-77
2021/03/22 11:49:48;;;;;;;3.92;0.40;;;17.80;55.80;;;;;;6161671;23;20045;-77
2021/03/22 11:52:25;;;;;;;5.03;0.47;;;17.80;55.90;;;;;;6197576;23;20374;-76
2021/03/22 11:55:04;;;;;;;4.68;0.95;;;17.80;55.80;;;;;;6196916;23;20031;-77
2021/03/22 11:57:32;;;;;;;5.35;0.57;;;17.80;55.70;;;;;;6197362;23;20009;-76
2021/03/22 12:00:01;;;;;;;3.90;0.45;;;17.80;56.30;;;;;;6198043;23;20021;-75
2021/03/22 12:02:40;;;;;;;4.25;0.60;;;17.80;55.50;;;;;;6196950;23;20013;-77
2021/03/22 12:05:23;;;;;;;2.03;0.45;;;17.80;55.50;;;;;;6197789;23;20036;-77
2021/03/22 12:07:49;;;;;;;6.03;0.63;;;17.80;55.50;;;;;;6187705;23;20419;-79
2021/03/22 12:10:28;;;;;;;4.53;0.68;;;17.70;55.60;;;;;;6194471;23;20271;-78
2021/03/22 12:12:58;;;;;;;5.00;0.65;;;17.70;55.50;;;;;;6196397;23;20092;-75
2021/03/22 12:15:24;;;;;;;2.55;0.35;;;17.70;55.50;;;;;;6197345;23;20017;-77
2021/03/22 12:17:55;;;;;;;1.83;0.50;;;17.70;55.50;;;;;;6196951;23;20457;-76
2021/03/22 12:20:24;;;;;;;3.90;0.32;;;17.70;55.30;;;;;;6197264;23;20017;-77
2021/03/22 12:22:50;;;;;;;2.80;0.45;;;17.70;55.90;;;;;;6197529;23;20079;-77
2021/03/22 12:25:27;;;;;;;5.60;0.30;;;17.70;55.40;;;;;;6197313;23;20013;-78
2021/03/22 12:27:53;;;;;;;5.85;0.70;;;17.70;55.50;;;;;;6197012;23;20047;-77
2021/03/22 12:30:28;;;;;;;3.53;0.50;;;17.60;54.10;;;;;;6197217;23;20036;-79
2021/03/22 12:33:16;;;;;;;4.45;0.98;;;17.40;54.00;;;;;;6197105;23;20012;-80
2021/03/22 12:35:41;;;;;;;9.88;0.68;;;17.30;54.60;;;;;;6171540;23;20021;-77
2021/03/22 12:38:07;;;;;;;10.18;0.60;;;17.20;54.70;;;;;;6197245;23;20055;-78
2021/03/22 12:40:33;;;;;;;2.97;0.40;;;17.20;54.80;;;;;;6196825;23;20361;-80
2021/03/22 12:43:00;;;;;;;5.03;0.70;;;17.30;54.70;;;;;;6197356;23;20496;-79
2021/03/22 12:45:33;;;;;;;2.55;0.60;;;17.20;54.70;;;;;;6197070;23;20013;-79
2021/03/22 12:47:59;;;;;;;1.70;0.55;;;17.20;54.70;;;;;;6197151;23;20438;-78
2021/03/22 12:50:25;;;;;;;2.88;0.35;;;17.20;54.90;;;;;;6196829;23;20343;-77
2021/03/22 12:52:52;;;;;;;2.35;0.40;;;17.20;55.00;;;;;;6197953;23;20040;-79
2021/03/22 12:55:20;;;;;;;2.83;0.52;;;17.20;55.10;;;;;;6170331;23;20024;-80
2021/03/22 12:57:46;;;;;;;5.95;0.85;;;17.10;55.20;;;;;;6196994;23;20476;-79
2021/03/22 13:00:13;;;;;;;3.05;0.38;;;17.10;55.20;;;;;;6171559;23;20092;-78
2021/03/22 13:02:40;;;;;;;1.88;0.40;;;17.10;55.20;;;;;;6196696;23;20028;-77
2021/03/22 13:05:29;;;;;;;2.95;0.70;;;17.10;55.30;;;;;;6171356;23;20422;-78
2021/03/22 13:07:55;;;;;;;1.85;0.20;;;17.10;55.40;;;;;;6199481;23;20087;-79
2021/03/22 13:10:24;;;;;;;3.17;0.50;;;17.00;55.40;;;;;;6196144;23;20021;-77
2021/03/22 13:12:50;;;;;;;3.92;0.32;;;17.00;55.50;;;;;;6199238;23;20025;-79
2021/03/22 13:15:31;;;;;;;5.88;0.38;;;17.00;55.50;;;;;;6194315;23;20426;-79
2021/03/22 13:17:57;;;;;;;1.85;0.17;;;17.00;55.50;;;;;;6199336;23;20302;-79
2021/03/22 13:20:25;;;;;;;2.35;0.30;;;16.90;56.30;;;;;;6198982;23;20076;-78
2021/03/22 13:22:51;;;;;;;5.43;0.43;;;16.90;55.70;;;;;;6199292;23;20036;-78
2021/03/22 13:25:17;;;;;;;2.90;0.17;;;16.90;55.90;;;;;;6198707;23;20414;-78
2021/03/22 13:27:44;;;;;;;3.17;0.28;;;16.90;56.00;;;;;;6199097;23;20013;-78
2021/03/22 13:30:16;;;;;;;2.08;0.25;;;16.90;56.10;;;;;;6199338;23;20084;-80
2021/03/22 13:32:42;;;;;;;1.70;0.25;;;16.80;56.10;;;;;;6198275;23;20041;-79
2021/03/22 13:35:13;;;;;;;3.33;0.40;;;16.80;56.20;;;;;;6199329;23;20013;-79
2021/03/22 13:37:38;;;;;;;1.77;0.20;;;16.80;56.30;;;;;;6199489;23;20021;-78
2021/03/22 13:40:05;;;;;;;3.78;0.55;;;16.70;53.80;;;;;;6198588;23;20020;-78
2021/03/22 13:42:31;;;;;;;2.80;0.52;;;16.50;51.80;;;;;;6198465;23;20040;-78
2021/03/22 13:44:57;;;;;;;3.08;0.32;;;16.20;50.80;;;;;;6188655;23;20457;-80
2021/03/22 13:47:23;;;;;;;6.60;0.80;;;16.00;51.50;;;;;;6172366;23;20144;-80
2021/03/22 13:49:49;;;;;;;0.88;0.20;;;15.90;52.60;;;;;;6172387;23;20013;-78
2021/03/22 13:52:24;;;;;;;2.33;0.40;;;15.90;53.60;;;;;;6198210;23;20366;-80
2021/03/22 13:54:50;;;;;;;4.38;0.40;;;15.90;53.90;;;;;;6198461;23;20017;-79
2021/03/22 13:57:16;;;;;;;1.75;0.20;;;15.90;53.80;;;;;;6173171;23;20013;-78
2021/03/22 13:59:42;;;;;;;3.42;0.30;;;16.00;54.00;;;;;;6198708;23;20415;-79
2021/03/22 14:02:11;;;;;;;3.95;0.40;;;16.20;54.00;;;;;;6198084;23;20485;-78
2021/03/22 14:04:37;;;;;;;2.97;0.38;;;16.30;53.80;;;;;;6196693;23;20016;-78
2021/03/22 14:07:04;;;;;;;2.92;0.38;;;16.40;53.70;;;;;;6197930;23;20288;-79
2021/03/22 14:09:30;;;;;;;2.75;0.15;;;16.60;53.60;;;;;;6188463;23;20024;-80
2021/03/22 14:11:56;;;;;;;2.00;0.50;;;16.70;53.40;;;;;;6162655;23;20088;-78
2021/03/22 14:14:22;;;;;;;6.78;0.45;;;16.80;53.00;;;;;;6198238;23;20032;-76
2021/03/22 14:16:48;;;;;;;2.08;0.40;;;16.80;53.00;;;;;;6195412;23;20020;-75
2021/03/22 14:19:14;;;;;;;3.35;0.17;;;16.80;53.20;;;;;;6198332;23;20056;-80
2021/03/22 14:21:40;;;;;;;4.57;0.65;;;16.80;53.70;;;;;;6197690;23;20017;-81
2021/03/22 14:24:10;;;;;;;1.90;0.10;;;16.80;53.90;;;;;;6162447;23;20023;-82
2021/03/22 14:26:35;;;;;;;4.47;0.65;;;16.90;54.00;;;;;;6136997;23;20024;-83
2021/03/22 14:29:02;;;;;;;5.95;0.30;;;17.00;54.10;;;;;;6198208;23;20021;-79
2021/03/22 14:31:28;;;;;;;6.03;0.40;;;17.10;54.10;;;;;;6197899;23;20310;-78
2021/03/22 14:33:57;;;;;;;5.75;0.73;;;17.00;54.00;;;;;;6161739;23;20084;-79
2021/03/22 14:36:25;;;;;;;4.55;0.20;;;17.10;54.00;;;;;;6197323;23;20060;-79
2021/03/22 14:38:57;;;;;;;2.45;0.20;;;17.20;54.00;;;;;;6198416;23;20021;-79
2021/03/22 14:41:23;;;;;;;4.75;0.55;;;17.30;53.90;;;;;;6198187;23;20442;-80
2021/03/22 14:43:49;;;;;;;4.53;0.20;;;17.30;53.80;;;;;;6198177;23;20024;-78
2021/03/22 14:46:15;;;;;;;2.95;0.38;;;17.40;53.80;;;;;;6198109;23;20016;-78
2021/03/22 14:48:41;;;;;;;2.05;0.10;;;17.40;53.80;;;;;;6198957;23;20016;-79
2021/03/22 14:51:07;;;;;;;3.95;0.20;;;17.50;53.80;;;;;;6171866;23;20096;-78
2021/03/22 14:53:35;;;;;;;4.00;0.40;;;17.50;53.70;;;;;;6198787;23;20017;-78
2021/03/22 14:56:02;;;;;;;5.97;0.30;;;17.60;53.70;;;;;;6171492;23;20342;-77
2021/03/22 14:58:28;;;;;;;3.20;0.40;;;17.60;53.70;;;;;;6198416;23;20013;-80
2021/03/22 15:00:54;;;;;;;3.00;0.30;;;17.70;53.80;;;;;;6197706;23;20315;-78
2021/03/22 15:03:19;;;;;;;3.95;0.20;;;17.70;53.80;;;;;;6197511;23;20028;-78
2021/03/22 15:05:45;;;;;;;15.60;5.32;;;17.70;53.30;;;;;;6159878;23;20008;-77
2021/03/22 15:08:21;;;;;;;4.78;0.90;;;17.60;53.80;;;;;;6197129;23;20111;-86
2021/03/22 15:10:52;;;;;;;4.13;0.90;;;17.60;53.60;;;;;;6193070;23;20036;-80
2021/03/22 15:13:19;;;;;;;2.53;0.60;;;17.50;52.70;;;;;;6196558;23;20429;-80
2021/03/22 15:15:47;;;;;;;2.22;0.85;;;17.40;52.60;;;;;;6197112;23;20033;-81
2021/03/22 15:18:21;;;;;;;4.97;0.40;;;17.40;52.60;;;;;;6171963;23;20020;-79
2021/03/22 15:20:48;;;;;;;3.30;0.55;;;17.40;52.30;;;;;;6196775;23;20441;-77
2021/03/22 15:23:18;;;;;;;5.32;0.80;;;17.50;52.20;;;;;;6197777;23;20012;-79
2021/03/22 15:25:45;;;;;;;2.35;0.52;;;17.60;52.20;;;;;;6196298;23;20427;-80
2021/03/22 15:28:17;;;;;;;3.10;0.70;;;17.70;52.40;;;;;;6198258;23;20009;-80
2021/03/22 15:30:44;;;;;;;1.90;0.47;;;17.80;52.80;;;;;;6197302;23;20013;-80
2021/03/22 15:33:25;;;;;;;2.28;0.68;;;17.90;52.60;;;;;;6196345;23;20236;-80
2021/03/22 15:36:15;;;;;;;2.00;0.73;;;17.90;52.70;;;;;;6196559;23;20052;-79
2021/03/22 15:38:42;;;;;;;4.88;0.82;;;18.00;53.00;;;;;;6187124;23;20020;-80
2021/03/22 15:41:12;;;;;;;3.95;0.85;;;18.00;53.00;;;;;;6187842;23;20088;-78
2021/03/22 15:43:42;;;;;;;2.58;0.40;;;18.00;53.20;;;;;;6171295;23;20021;-81
2021/03/22 15:46:11;;;;;;;2.17;0.47;;;18.00;52.90;;;;;;6161612;23;20315;-80
2021/03/22 15:48:41;;;;;;;2.90;0.63;;;17.90;52.90;;;;;;6172124;23;20084;-78
2021/03/22 15:51:26;;;;;;;2.60;0.43;;;17.90;53.00;;;;;;6197287;23;20070;-84
2021/03/22 15:53:55;;;;;;;1.80;0.47;;;17.80;53.10;;;;;;6186640;23;20017;-80
2021/03/22 15:56:21;;;;;;;2.63;0.32;;;17.80;52.90;;;;;;6170445;23;20013;-79
2021/03/22 15:58:46;;;;;;;2.45;0.38;;;17.70;52.90;;;;;;6197529;23;20024;-79
2021/03/22 16:01:14;;;;;;;2.97;0.57;;;17.70;53.10;;;;;;6196283;23;20036;-80
2021/03/22 16:03:42;;;;;;;4.57;0.52;;;17.70;53.30;;;;;;6196639;23;20142;-79
2021/03/22 16:06:08;;;;;;;5.70;0.75;;;17.70;53.40;;;;;;6187794;23;20043;-78
2021/03/22 16:08:35;;;;;;;2.70;0.88;;;17.70;53.70;;;;;;6195522;23;20358;-80
2021/03/22 16:11:01;;;;;;;4.63;0.75;;;17.70;54.00;;;;;;6192899;23;20013;-80
2021/03/22 16:13:37;;;;;;;11.85;0.98;;;17.80;54.20;;;;;;6197009;23;20017;-81
2021/03/22 16:16:05;;;;;;;5.75;0.68;;;17.80;54.40;;;;;;6187781;23;20036;-83
2021/03/22 16:18:31;;;;;;;6.72;1.10;;;17.90;54.50;;;;;;6197341;23;20059;-82
2021/03/22 16:20:58;;;;;;;14.43;0.80;;;17.90;54.70;;;;;;6171180;23;20009;-81
2021/03/22 16:23:28;;;;;;;5.57;0.52;;;17.90;54.70;;;;;;6198164;23;20013;-81
2021/03/22 16:25:55;;;;;;;9.45;1.50;;;17.90;54.90;;;;;;6197929;23;20017;-81
2021/03/22 16:28:22;;;;;;;7.95;0.77;;;17.90;55.00;;;;;;6197581;23;20410;-79
2021/03/22 16:30:48;;;;;;;8.32;0.63;;;18.00;55.10;;;;;;6171664;23;20017;-82
2021/03/22 16:33:23;;;;;;;6.90;0.60;;;18.00;55.20;;;;;;6197883;23;20449;-82
2021/03/22 16:35:51;;;;;;;5.78;0.50;;;18.00;55.30;;;;;;6197648;23;20093;-80
2021/03/22 16:38:34;;;;;;;7.75;0.70;;;18.00;55.40;;;;;;6171016;23;20020;-86
2021/03/22 16:41:10;;;;;;;11.50;0.95;;;18.00;55.40;;;;;;6138537;23;20377;-78
2021/03/22 16:43:36;;;;;;;6.85;0.77;;;18.00;55.30;;;;;;6199484;23;20075;-80
2021/03/22 16:46:05;;;;;;;5.60;0.40;;;18.00;55.20;;;;;;6199542;23;20091;-79
2021/03/22 16:48:32;;;;;;;5.75;0.73;;;18.00;55.10;;;;;;6199215;23;20079;-81
2021/03/22 16:51:00;;;;;;;7.53;0.52;;;18.00;55.00;;;;;;6199299;23;20024;-80
2021/03/22 16:53:27;;;;;;;9.60;1.15;;;18.00;54.90;;;;;;6200228;23;20017;-78
2021/03/22 16:56:00;;;;;;;9.70;0.88;;;18.00;55.00;;;;;;6199526;23;20021;-80
2021/03/22 16:58:29;;;;;;;8.00;0.65;;;18.00;55.10;;;;;;6199242;23;20013;-79
2021/03/22 17:00:55;;;;;;;9.40;0.93;;;18.00;55.20;;;;;;6198913;23;20017;-79
2021/03/22 17:03:22;;;;;;;11.45;1.35;;;18.00;55.20;;;;;;6199754;23;20024;-79
2021/03/22 17:05:51;;;;;;;17.50;1.27;;;18.00;55.20;;;;;;6199134;23;20017;-78
2021/03/22 17:08:20;;;;;;;18.27;1.73;;;18.00;55.00;;;;;;6197812;23;20087;-78
2021/03/22 17:10:46;;;;;;;9.30;1.10;;;18.00;55.10;;;;;;6195399;23;20024;-79
2021/03/22 17:13:15;;;;;;;13.07;1.00;;;18.00;55.10;;;;;;6198710;23;20013;-79
2021/03/22 17:15:41;;;;;;;12.40;1.20;;;18.00;55.20;;;;;;6199373;23;20021;-77
2021/03/22 17:18:06;;;;;;;9.95;0.70;;;18.00;55.20;;;;;;6199457;23;20088;-78
2021/03/22 17:20:32;;;;;;;11.77;1.90;;;18.00;55.20;;;;;;6198970;23;20017;-79
2021/03/22 17:23:02;;;;;;;13.55;1.48;;;17.90;55.10;;;;;;6198562;23;20047;-78
2021/03/22 17:25:34;;;;;;;9.95;0.80;;;17.90;55.10;;;;;;6199806;23;20013;-78
2021/03/22 17:28:01;;;;;;;15.30;1.67;;;17.90;55.00;;;;;;6199118;23;20021;-77
2021/03/22 17:30:30;;;;;;;12.70;0.93;;;17.80;54.60;;;;;;6173574;23;20024;-77
2021/03/22 17:32:56;;;;;;;7.57;0.93;;;17.90;54.60;;;;;;6198731;23;20498;-76
2021/03/22 17:35:24;;;;;;;9.02;0.70;;;17.90;54.40;;;;;;6199012;23;20013;-76
2021/03/22 17:37:50;;;;;;;10.95;1.13;;;17.90;54.20;;;;;;6199035;23;20009;-77
2021/03/22 17:40:28;;;;;;;9.45;1.20;;;18.00;54.20;;;;;;6199292;23;20013;-77
2021/03/22 17:42:54;;;;;;;10.60;0.80;;;18.00;53.90;;;;;;6198876;23;20017;-77
2021/03/22 17:45:23;;;;;;;5.85;0.88;;;18.00;54.00;;;;;;6198841;23;20426;-77
2021/03/22 17:47:49;;;;;;;9.52;0.93;;;18.00;53.90;;;;;;6198571;23;20328;-76
2021/03/22 17:50:18;;;;;;;7.38;1.23;;;17.90;53.80;;;;;;6198948;23;20049;-76
2021/03/22 17:52:44;;;;;;;10.55;0.80;;;17.90;53.80;;;;;;6198811;23;20013;-77
2021/03/22 17:55:10;;;;;;;5.55;0.50;;;17.90;53.90;;;;;;6199027;23;20449;-77
2021/03/22 17:57:37;;;;;;;6.47;0.80;;;17.80;53.80;;;;;;6198980;23;20016;-76
2021/03/22 18:00:08;;;;;;;5.70;0.73;;;17.80;53.80;;;;;;6198267;23;20092;-78
2021/03/22 18:02:34;;;;;;;3.92;0.70;;;17.80;53.90;;;;;;6199823;23;20020;-76
2021/03/22 18:05:00;;;;;;;4.32;0.68;;;17.80;54.00;;;;;;6198613;23;20100;-76
2021/03/22 18:07:25;;;;;;;5.53;1.08;;;17.70;54.00;;;;;;6198689;23;20092;-77
2021/03/22 18:09:51;;;;;;;5.25;0.55;;;17.70;54.10;;;;;;6187965;23;20032;-78
2021/03/22 18:12:18;;;;;;;3.72;0.47;;;17.60;54.10;;;;;;6188639;23;20017;-77
2021/03/22 18:14:44;;;;;;;6.32;0.80;;;17.60;54.20;;;;;;6198260;23;20369;-78
2021/03/22 18:17:10;;;;;;;4.70;0.63;;;17.60;54.20;;;;;;6198296;23;20017;-77
2021/03/22 18:19:37;;;;;;;3.92;0.68;;;17.50;54.30;;;;;;6198069;23;20079;-77
2021/03/22 18:22:04;;;;;;;7.78;0.82;;;17.50;54.40;;;;;;6198199;23;20014;-79
2021/03/22 18:24:31;;;;;;;5.38;0.70;;;17.40;54.40;;;;;;6187460;23;20025;-76
2021/03/22 18:26:57;;;;;;;7.07;0.73;;;17.40;54.40;;;;;;6198281;23;20028;-80
2021/03/22 18:29:24;;;;;;;5.53;0.90;;;17.40;54.40;;;;;;6172286;23;20013;-76
2021/03/22 18:31:52;;;;;;;4.53;0.95;;;17.40;54.40;;;;;;6198358;23;20314;-76
2021/03/22 18:34:19;;;;;;;11.65;1.17;;;17.40;54.80;;;;;;6198185;23;20017;-77
2021/03/22 18:36:45;;;;;;;4.18;0.73;;;17.30;55.10;;;;;;6198574;23;20091;-76
2021/03/22 18:39:12;;;;;;;3.72;0.93;;;17.30;55.20;;;;;;6198867;23;20096;-76
2021/03/22 18:41:38;;;;;;;7.22;0.50;;;17.30;55.20;;;;;;6188811;23;20427;-77
2021/03/22 18:44:05;;;;;;;3.72;0.75;;;17.30;55.30;;;;;;6198129;23;20036;-76
2021/03/22 18:46:31;;;;;;;3.95;0.70;;;17.20;55.20;;;;;;6198327;23;20104;-78
2021/03/22 18:48:57;;;;;;;4.97;0.70;;;17.30;55.20;;;;;;6198314;23;20426;-78
2021/03/22 18:51:23;;;;;;;4.85;0.82;;;17.20;55.10;;;;;;6199105;23;20013;-77
2021/03/22 18:53:49;;;;;;;6.35;1.38;;;17.20;55.10;;;;;;6198826;23;20101;-79
2021/03/22 18:56:15;;;;;;;2.15;0.60;;;17.20;55.20;;;;;;6188622;23;20446;-75
2021/03/22 18:58:42;;;;;;;3.85;0.70;;;17.20;55.10;;;;;;6198252;23;20036;-76